Time;durP1;ratioP1;P1;durP2;ratioP2;P2;SDS_P1;SDS_P2;PMS_P1;PMS_P2;Temp;Humidity;BMP_temperature;BMP_pressure;BME280_temperature;BME280_humidity;BME280_pressure;Samples;Min_cycle;Max_cycle;Signal;HPM_P1;HPM_P2
2021/12/16 00:02:14;;;;;;;31.17;16.43;;;;;;;5.27;77.55;100627.97;5299916;27;34571;-71
2021/12/16 00:07:43;;;;;;;39.38;16.15;;;;;;;5.32;76.79;100629.00;5299553;27;33971;-72
2021/12/16 00:11:26;;;;;;;29.83;14.13;;;;;;;5.39;76.15;100630.06;5300070;27;36006;-71
2021/12/16 00:32:34;;;;;;;26.40;12.85;;;;;;;5.16;77.25;100630.22;5300232;27;35061;-72
2021/12/16 00:35:03;;;;;;;32.35;13.57;;;;;;;4.91;78.16;100637.16;5299730;27;34397;-71
2021/12/16 00:37:31;;;;;;;30.75;13.07;;;;;;;4.17;81.82;100638.91;5300347;27;34399;-71
2021/12/16 00:39:59;;;;;;;28.85;14.45;;;;;;;4.89;79.44;100637.94;5300853;27;34296;-72
2021/12/16 00:42:39;;;;;;;31.65;14.20;;;;;;;4.62;79.74;100640.47;5280771;27;35916;-71
2021/12/16 00:45:29;;;;;;;32.63;15.00;;;;;;;5.00;78.24;100639.16;5297533;27;34577;-72
2021/12/16 00:55:52;;;;;;;32.47;13.50;;;;;;;5.41;75.82;100644.78;5300430;27;34539;-71
2021/12/16 00:58:25;;;;;;;33.53;15.57;;;;;;;5.00;76.85;100639.16;5281378;27;33452;-71
2021/12/16 01:01:12;;;;;;;29.08;14.23;;;;;;;5.33;75.77;100643.69;5300572;27;33916;-71
2021/12/16 01:39:54;;;;;;;28.48;15.00;;;;;;;5.12;76.05;100624.06;5300893;27;34638;-72
2021/12/16 01:50:40;;;;;;;30.62;14.20;;;;;;;4.77;79.43;100615.19;5300265;27;35266;-71
2021/12/16 01:55:46;;;;;;;32.83;13.62;;;;;;;4.78;78.36;100610.91;5300953;27;34074;-71
2021/12/16 01:58:22;;;;;;;28.00;13.80;;;;;;;4.92;79.08;100609.63;5300008;27;35065;-71
2021/12/16 02:01:15;;;;;;;26.40;13.70;;;;;;;5.13;77.90;100609.44;5300759;27;34446;-72
2021/12/16 02:03:52;;;;;;;26.23;13.38;;;;;;;4.88;79.39;100607.78;5299178;27;34476;-71
2021/12/16 02:09:22;;;;;;;30.52;12.93;;;;;;;5.13;78.36;100610.34;5299492;27;35804;-71
2021/12/16 02:28:38;;;;;;;24.85;13.43;;;;;;;5.39;77.04;100599.94;5300065;27;33713;-71
2021/12/16 02:34:20;;;;;;;26.62;14.57;;;;;;;4.48;82.77;100599.63;5300488;27;34616;-71
2021/12/16 02:36:44;;;;;;;29.60;13.75;;;;;;;5.16;80.05;100593.19;5300039;27;33374;-72
2021/12/16 02:39:19;;;;;;;29.63;14.38;;;;;;;4.87;81.94;100600.88;5292068;27;204584;-72
2021/12/16 02:41:50;;;;;;;35.20;14.45;;;;;;;4.79;81.92;100608.38;5298439;27;35045;-71
2021/12/16 02:50:10;;;;;;;35.33;15.65;;;;;;;5.19;80.25;100599.34;5297292;27;33618;-71
2021/12/16 02:52:38;;;;;;;32.35;14.35;;;;;;;5.20;80.61;100585.56;5298548;27;35077;-72
2021/12/16 02:55:09;;;;;;;33.22;16.12;;;;;;;5.20;80.08;100584.72;5299815;27;35242;-71
2021/12/16 02:57:47;;;;;;;25.90;14.30;;;;;;;4.86;81.25;100588.81;5298603;27;33678;-72
2021/12/16 03:00:16;;;;;;;35.33;15.85;;;;;;;5.09;79.79;100593.00;5300604;27;34127;-72
2021/12/16 03:02:49;;;;;;;35.65;16.10;;;;;;;4.47;82.53;100589.25;5300090;27;35178;-71
2021/12/16 03:05:19;;;;;;;33.97;14.63;;;;;;;4.81;80.92;100586.06;5299154;27;35303;-72
2021/12/16 03:07:50;;;;;;;32.00;14.10;;;;;;;5.01;80.02;100578.09;5298173;27;32953;-71
2021/12/16 03:13:20;;;;;;;30.40;16.08;;;;;;;5.81;77.47;100565.87;5281841;27;35226;-72
2021/12/16 03:21:14;;;;;;;31.80;14.45;;;;;;;5.30;79.06;100566.97;5300397;27;34056;-73
2021/12/16 03:32:03;;;;;;;28.20;14.87;;;;;;;6.03;76.05;100561.31;5282792;27;33802;-71
2021/12/16 03:37:17;;;;;;;29.17;14.32;;;;;;;5.66;77.07;100565.41;5299653;27;35386;-73
2021/12/16 03:40:01;;;;;;;30.77;15.80;;;;;;;5.82;76.47;100569.31;5298873;27;33679;-72
2021/12/16 03:42:34;;;;;;;34.10;15.35;;;;;;;4.78;80.71;100567.03;5298561;27;33948;-73
2021/12/16 03:48:36;;;;;;;27.50;14.77;;;;;;;5.89;77.04;100572.13;5299380;27;34625;-73
2021/12/16 03:51:09;;;;;;;34.45;15.75;;;;;;;6.08;75.92;100560.59;5300122;27;34592;-73
2021/12/16 03:53:38;;;;;;;33.85;14.35;;;;;;;5.99;75.91;100559.50;5299659;27;34011;-73
2021/12/16 03:56:07;;;;;;;31.85;15.23;;;;;;;5.66;77.23;100566.28;5300120;27;35211;-73
2021/12/16 03:58:37;;;;;;;32.15;16.48;;;;;;;6.10;75.68;100557.19;5299547;27;34548;-71
2021/12/16 04:01:09;;;;;;;36.92;15.73;;;;;;;5.70;76.74;100562.97;5300238;27;33857;-72
2021/12/16 04:03:38;;;;;;;29.60;14.15;;;;;;;6.18;74.74;100566.03;5299444;27;33966;-73
2021/12/16 04:06:08;;;;;;;31.33;14.63;;;;;;;5.85;75.47;100572.00;5280972;27;35962;-72
2021/12/16 04:08:36;;;;;;;27.83;13.60;;;;;;;5.73;76.32;100566.47;5279941;27;35071;-72
2021/12/16 04:11:18;;;;;;;31.85;16.08;;;;;;;5.87;76.07;100568.59;5300209;27;33686;-71
2021/12/16 04:13:55;;;;;;;29.73;14.43;;;;;;;6.01;75.59;100563.00;5298537;27;33965;-72
2021/12/16 04:16:27;;;;;;;37.22;15.70;;;;;;;5.68;77.69;100563.75;5299585;27;35059;-72
2021/12/16 04:18:56;;;;;;;30.70;13.23;;;;;;;4.86;80.79;100568.16;5299039;27;33639;-72
2021/12/16 04:21:26;;;;;;;36.17;14.85;;;;;;;4.94;80.36;100562.41;5289711;27;33571;-73
2021/12/16 04:23:56;;;;;;;30.83;14.48;;;;;;;4.93;80.47;100555.50;5298580;27;33329;-74
2021/12/16 04:26:27;;;;;;;35.03;17.02;;;;;;;4.64;81.75;100559.72;5299177;27;35175;-73
2021/12/16 04:28:55;;;;;;;34.78;15.00;;;;;;;4.72;80.71;100563.41;5299908;27;33671;-73
2021/12/16 04:31:24;;;;;;;27.23;14.75;;;;;;;4.31;82.25;100557.75;5296930;27;34509;-72
2021/12/16 04:33:53;;;;;;;35.72;15.55;;;;;;;4.96;79.69;100548.66;5298171;27;33244;-72
2021/12/16 04:36:22;;;;;;;38.05;16.02;;;;;;;5.81;75.96;100557.25;5298651;27;35866;-71
2021/12/16 04:38:52;;;;;;;34.60;16.70;;;;;;;5.36;76.34;100563.69;5299034;27;34519;-71
2021/12/16 04:41:28;;;;;;;31.35;15.73;;;;;;;5.86;75.46;100561.69;5299649;27;33589;-71
2021/12/16 04:43:56;;;;;;;28.75;13.82;;;;;;;5.98;74.29;100557.72;5299584;27;33847;-71
2021/12/16 04:46:27;;;;;;;38.33;15.40;;;;;;;5.63;76.01;100561.06;5293815;27;35056;-71
2021/12/16 04:48:58;;;;;;;30.98;15.20;;;;;;;5.66;75.67;100562.84;5295486;27;35119;-70
2021/12/16 04:51:32;;;;;;;33.72;16.27;;;;;;;5.41;77.23;100556.06;5299158;27;33645;-71
2021/12/16 04:54:01;;;;;;;37.55;17.05;;;;;;;5.17;77.61;100559.69;5299293;27;33994;-72
2021/12/16 04:56:30;;;;;;;34.95;16.45;;;;;;;5.02;79.24;100562.66;5298724;27;35030;-71
2021/12/16 04:59:08;;;;;;;39.63;16.33;;;;;;;4.60;81.23;100554.41;5299581;27;35375;-71
2021/12/16 05:01:39;;;;;;;35.50;15.40;;;;;;;4.74;80.19;100553.16;5293259;27;33576;-71
2021/12/16 05:04:09;;;;;;;36.92;15.35;;;;;;;5.19;78.99;100551.97;5297620;27;34627;-71
2021/12/16 05:06:38;;;;;;;40.72;15.57;;;;;;;5.42;77.63;100550.97;5299463;27;35974;-70
2021/12/16 05:09:07;;;;;;;29.33;13.32;;;;;;;5.57;77.12;100554.81;5281124;27;35166;-71
2021/12/16 05:11:36;;;;;;;34.65;15.52;;;;;;;5.53;76.63;100545.25;5280302;27;32705;-72
2021/12/16 05:14:06;;;;;;;37.17;14.30;;;;;;;5.29;77.62;100556.56;5300692;27;33784;-71
2021/12/16 05:16:35;;;;;;;38.28;15.68;;;;;;;5.08;78.77;100544.78;5299926;27;35955;-72
2021/12/16 05:19:03;;;;;;;29.77;15.52;;;;;;;5.21;78.13;100555.50;5300701;27;34580;-72
2021/12/16 05:24:25;;;;;;;32.20;13.98;;;;;;;5.25;78.78;100552.16;5298942;27;33825;-71
2021/12/16 05:27:00;;;;;;;33.58;15.90;;;;;;;4.86;80.20;100557.84;5298080;27;35113;-71
2021/12/16 05:29:28;;;;;;;33.00;15.23;;;;;;;5.26;78.08;100553.94;5291176;27;34653;-72
2021/12/16 05:31:58;;;;;;;35.03;16.33;;;;;;;5.30;78.80;100561.78;5296744;27;33926;-72
2021/12/16 05:34:27;;;;;;;31.50;14.57;;;;;;;5.37;78.66;100557.69;5294463;27;34046;-74
2021/12/16 05:36:55;;;;;;;34.13;15.65;;;;;;;5.21;78.20;100570.97;5293450;27;35082;-74
2021/12/16 05:39:24;;;;;;;31.23;13.77;;;;;;;5.15;79.26;100558.72;5299285;27;35330;-73
2021/12/16 05:41:52;;;;;;;30.33;14.82;;;;;;;4.89;80.17;100573.44;5280009;27;33971;-73
2021/12/16 05:44:21;;;;;;;35.03;13.95;;;;;;;4.56;83.24;100571.50;5279769;27;33398;-74
2021/12/16 05:46:50;;;;;;;39.40;16.92;;;;;;;4.98;81.45;100575.41;5299756;27;35940;-73
2021/12/16 05:49:18;;;;;;;28.33;14.32;;;;;;;4.86;80.81;100569.03;5299955;27;33966;-72
2021/12/16 05:51:49;;;;;;;33.78;15.65;;;;;;;4.97;80.91;100582.28;5299670;27;33601;-73
2021/12/16 05:54:19;;;;;;;35.72;15.10;;;;;;;5.09;79.86;100577.50;5298022;27;32706;-71
2021/12/16 05:56:49;;;;;;;37.17;14.80;;;;;;;5.07;79.78;100579.16;5297806;27;35881;-72
2021/12/16 05:59:18;;;;;;;34.30;14.73;;;;;;;4.92;81.21;100581.25;5281664;27;35261;-73
2021/12/16 06:01:48;;;;;;;34.28;15.30;;;;;;;5.49;78.76;100583.88;5299213;27;33753;-74
2021/12/16 06:04:19;;;;;;;33.25;16.35;;;;;;;5.23;79.27;100577.06;5281917;27;33897;-72
2021/12/16 06:06:47;;;;;;;37.30;16.87;;;;;;;4.80;81.86;100578.28;5300177;27;35286;-73
2021/12/16 06:09:16;;;;;;;42.92;16.85;;;;;;;4.82;81.24;100576.59;5299395;27;34655;-72
2021/12/16 06:11:44;;;;;;;41.28;16.23;;;;;;;4.42;82.94;100585.63;5300049;27;34240;-72
2021/12/16 06:14:41;;;;;;;30.48;15.07;;;;;;;4.75;81.32;100586.75;5300482;27;34048;-73
2021/12/16 06:26:25;;;;;;;221.98;87.07;;;;;;;5.39;79.94;100587.03;5299991;27;33245;-72
2021/12/16 06:28:26;;;;;;;385.63;157.40;;;;;;;4.53;82.61;100592.00;5300314;27;35197;-72
2021/12/16 06:30:54;;;;;;;155.20;71.47;;;;;;;4.68;82.51;100582.22;5299521;27;34506;-71
2021/12/16 06:33:23;;;;;;;164.10;83.45;;;;;;;4.95;82.30;100589.09;5298314;27;33647;-72
2021/12/16 06:35:53;;;;;;;71.93;38.55;;;;;;;4.54;83.09;100589.50;5299815;27;34086;-72
2021/12/16 06:38:23;;;;;;;42.90;23.60;;;;;;;4.62;83.68;100591.44;5299070;27;35146;-72
2021/12/16 06:40:52;;;;;;;40.38;18.20;;;;;;;3.93;86.91;100592.50;5299890;27;35013;-72
2021/12/16 06:43:23;;;;;;;39.13;19.08;;;;;;;4.51;84.52;100594.53;5300448;27;33471;-72
2021/12/16 06:45:54;;;;;;;48.05;20.88;;;;;;;4.46;84.62;100597.78;5298018;27;34111;-71
2021/12/16 06:48:28;;;;;;;43.80;18.35;;;;;;;4.56;83.95;100603.31;5298367;27;35761;-72
2021/12/16 06:51:00;;;;;;;40.65;20.70;;;;;;;4.32;84.98;100594.72;5298506;27;34468;-72
2021/12/16 06:53:35;;;;;;;45.28;19.05;;;;;;;4.94;82.20;100592.50;5299231;27;34383;-72
2021/12/16 06:56:12;;;;;;;38.90;18.10;;;;;;;4.48;84.62;100604.78;5299446;27;34965;-73
2021/12/16 06:59:02;;;;;;;42.13;18.95;;;;;;;4.11;85.64;100606.06;5299848;27;35833;-73
2021/12/16 07:04:08;;;;;;;45.38;16.92;;;;;;;4.51;84.40;100611.72;5281184;27;33554;-72
2021/12/16 07:06:38;;;;;;;35.17;15.65;;;;;;;5.33;81.37;100610.09;5298344;27;33898;-74
2021/12/16 07:09:16;;;;;;;39.97;18.60;;;;;;;4.99;81.98;100609.00;5281112;27;35536;-73
2021/12/16 07:11:52;;;;;;;37.85;17.52;;;;;;;4.33;84.48;100611.97;5299864;27;34670;-74
2021/12/16 07:14:23;;;;;;;;;;;;;;;5.07;82.34;100607.56;5281641;27;33500;-74
2021/12/16 07:16:57;;;;;;;35.80;16.95;;;;;;;5.27;81.12;100612.47;5280962;27;34368;-74
2021/12/16 07:19:25;;;;;;;38.08;17.48;;;;;;;4.33;85.12;100612.84;5281494;27;35068;-74
2021/12/16 07:21:53;;;;;;;33.05;16.92;;;;;;;4.78;83.72;100610.91;5297492;27;34543;-73
2021/12/16 07:24:20;;;;;;;36.35;17.52;;;;;;;4.88;82.22;100606.09;5300522;27;34865;-72
2021/12/16 07:26:49;;;;;;;42.08;19.12;;;;;;;4.64;84.01;100613.91;5299699;27;33894;-72
2021/12/16 07:29:17;;;;;;;39.20;17.73;;;;;;;5.13;81.87;100606.87;5298043;27;35915;-72
2021/12/16 07:31:44;;;;;;;72.93;37.25;;;;;;;4.91;82.95;100615.66;5299612;27;34633;-77
2021/12/16 07:34:13;;;;;;;128.00;52.72;;;;;;;5.31;82.07;100611.72;5298578;27;33478;-72
2021/12/16 07:36:43;;;;;;;221.10;90.30;;;;;;;5.45;81.04;100607.88;5298416;27;34772;-73
2021/12/16 07:39:16;;;;;;;192.87;75.43;;;;;;;4.89;82.88;100614.72;5299635;27;34311;-73
2021/12/16 07:41:47;;;;;;;229.23;99.82;;;;;;;5.24;82.26;100617.53;5299739;27;34605;-73
2021/12/16 07:44:16;;;;;;;216.63;98.53;;;;;;;5.36;80.57;100611.88;5300155;27;34558;-72
2021/12/16 07:46:50;;;;;;;304.15;128.57;;;;;;;4.86;83.72;100609.47;5298004;27;33900;-72
2021/12/16 07:49:23;;;;;;;217.35;90.07;;;;;;;5.07;83.94;100610.13;5299919;27;35170;-72
2021/12/16 07:51:51;;;;;;;142.55;69.35;;;;;;;4.59;85.59;100607.72;5298225;27;35173;-71
2021/12/16 07:54:21;;;;;;;65.68;31.15;;;;;;;4.78;85.58;100606.59;5280774;27;33647;-74
2021/12/16 07:56:51;;;;;;;37.17;16.77;;;;;;;4.37;87.93;100606.09;5298216;27;34168;-72
2021/12/16 07:59:19;;;;;;;51.50;21.30;;;;;;;4.82;85.64;100611.06;5299844;27;35752;-74
2021/12/16 08:01:47;;;;;;;39.58;18.40;;;;;;;4.37;87.71;100612.12;5299511;27;34261;-71
2021/12/16 08:04:21;;;;;;;41.40;20.15;;;;;;;5.04;85.14;100604.88;5300061;27;33595;-73
2021/12/16 08:06:52;;;;;;;39.72;17.02;;;;;;;5.25;83.33;100606.37;5299546;27;33816;-72
2021/12/16 08:09:21;;;;;;;45.63;17.30;;;;;;;5.13;83.30;100606.87;5299968;27;35976;-74
2021/12/16 08:11:50;;;;;;;35.63;17.45;;;;;;;4.69;86.17;100607.16;5299403;27;34581;-71
2021/12/16 08:14:18;;;;;;;35.28;17.27;;;;;;;4.80;85.65;100610.13;5299705;27;33914;-72
2021/12/16 08:16:47;;;;;;;39.72;17.42;;;;;;;5.17;83.88;100615.59;5299227;27;34767;-71
2021/12/16 08:19:15;;;;;;;41.75;16.35;;;;;;;5.19;83.97;100609.66;5299838;27;35755;-73
2021/12/16 08:21:43;;;;;;;32.47;15.77;;;;;;;5.02;84.51;100610.84;5298748;27;34459;-73
2021/12/16 08:24:17;;;;;;;38.55;16.33;;;;;;;5.06;84.36;100603.22;5280202;27;33549;-71
2021/12/16 08:26:48;;;;;;;46.75;17.30;;;;;;;5.28;83.19;100615.09;5299103;27;34688;-72
2021/12/16 08:29:16;;;;;;;42.60;18.25;;;;;;;4.95;85.62;100612.31;5298949;27;35807;-71
2021/12/16 08:31:44;;;;;;;35.97;15.77;;;;;;;4.65;85.72;100619.94;5297599;27;34019;-75
2021/12/16 08:34:13;;;;;;;45.70;18.27;;;;;;;4.69;85.73;100612.34;5299641;27;33475;-71
2021/12/16 08:36:41;;;;;;;37.47;18.02;;;;;;;4.31;88.30;100611.91;5279904;27;33880;-71
2021/12/16 08:39:16;;;;;;;40.45;17.12;;;;;;;4.86;84.87;100612.03;5299297;27;35035;-70
2021/12/16 08:41:54;;;;;;;32.47;15.88;;;;;;;4.97;84.86;100602.94;5300027;27;34523;-70
2021/12/16 08:44:22;;;;;;;43.45;19.48;;;;;;;4.88;84.66;100598.34;5298721;27;31916;-70
2021/12/16 08:46:53;;;;;;;31.08;13.93;;;;;;;4.69;86.08;100607.16;5300604;27;34111;-72
2021/12/16 08:49:22;;;;;;;42.42;16.17;;;;;;;5.18;85.43;100600.16;5300351;27;35946;-72
2021/12/16 08:51:52;;;;;;;30.67;13.68;;;;;;;5.02;86.86;100601.38;5300677;27;35108;-70
2021/12/16 08:54:20;;;;;;;37.72;15.13;;;;;;;5.25;86.48;100604.69;5300466;27;32680;-71
2021/12/16 08:56:49;;;;;;;45.63;17.73;;;;;;;5.60;84.88;100596.25;5300126;27;34026;-72
2021/12/16 08:59:18;;;;;;;37.28;18.05;;;;;;;5.75;85.12;100600.97;5300813;27;35802;-71
2021/12/16 09:01:49;;;;;;;37.70;15.48;;;;;;;5.42;86.63;100602.63;5298205;27;34616;-69
2021/12/16 09:04:19;;;;;;;38.08;17.37;;;;;;;5.80;84.96;100602.87;5300733;27;34042;-69
2021/12/16 09:06:48;;;;;;;39.83;18.77;;;;;;;6.17;83.54;100600.47;5300175;27;33064;-69
2021/12/16 09:09:16;;;;;;;35.08;14.65;;;;;;;5.96;83.87;100605.94;5300615;27;35975;-69
2021/12/16 09:12:02;;;;;;;36.58;17.55;;;;;;;6.42;81.72;100597.72;5300185;27;35436;-69
2021/12/16 09:14:31;;;;;;;35.67;17.45;;;;;;;6.14;83.05;100597.81;5300687;27;33646;-72
2021/12/16 09:16:59;;;;;;;37.40;18.12;;;;;;;6.47;81.04;100595.25;5299529;27;34108;-74
2021/12/16 09:19:27;;;;;;;45.22;17.30;;;;;;;6.37;81.37;100593.25;5300599;27;35141;-69
2021/12/16 09:21:55;;;;;;;35.00;15.77;;;;;;;6.08;83.09;100593.34;5299983;27;34569;-74
2021/12/16 09:24:24;;;;;;;35.70;16.92;;;;;;;5.90;83.67;100591.09;5300624;27;33587;-73
2021/12/16 09:26:52;;;;;;;33.55;15.13;;;;;;;6.13;83.13;100593.50;5300087;27;34847;-73
2021/12/16 09:29:20;;;;;;;35.35;16.58;;;;;;;6.41;82.25;100584.75;5300323;27;35163;-70
2021/12/16 09:31:48;;;;;;;33.40;15.95;;;;;;;6.58;81.77;100588.66;5300066;27;34407;-73
2021/12/16 09:34:16;;;;;;;40.20;18.10;;;;;;;5.83;83.43;100589.16;5299928;27;33688;-71
2021/12/16 09:36:45;;;;;;;36.88;16.30;;;;;;;6.20;82.77;100585.94;5300041;27;33878;-73
2021/12/16 09:39:16;;;;;;;33.30;13.43;;;;;;;6.35;82.44;100582.00;5300514;27;35160;-74
2021/12/16 09:41:47;;;;;;;34.40;14.10;;;;;;;6.36;81.36;100579.44;5299927;27;35378;-74
2021/12/16 09:44:17;;;;;;;32.92;15.48;;;;;;;6.37;81.68;100583.81;5300673;27;33703;-73
2021/12/16 09:46:48;;;;;;;34.90;15.30;;;;;;;6.42;80.10;100589.97;5300257;27;34701;-73
2021/12/16 09:49:18;;;;;;;31.50;15.02;;;;;;;6.33;81.93;100586.25;5298370;27;35052;-75
2021/12/16 09:51:48;;;;;;;32.30;15.35;;;;;;;6.54;80.23;100576.44;5299776;27;35302;-73
2021/12/16 09:54:20;;;;;;;39.10;18.12;;;;;;;6.45;81.43;100578.81;5300334;27;34475;-74
2021/12/16 09:56:48;;;;;;;33.17;16.55;;;;;;;6.54;80.65;100576.44;5299928;27;33699;-69
2021/12/16 09:59:18;;;;;;;36.45;16.35;;;;;;;6.55;80.80;100580.81;5300536;27;35115;-74
2021/12/16 10:01:48;;;;;;;42.78;16.17;;;;;;;6.51;81.37;100589.34;5299750;27;35247;-75
2021/12/16 10:04:20;;;;;;;38.15;17.62;;;;;;;6.69;81.87;100585.44;5300208;27;33214;-70
2021/12/16 10:06:52;;;;;;;40.10;16.52;;;;;;;6.48;82.66;100586.66;5280897;27;33981;-69
2021/12/16 10:09:21;;;;;;;36.28;15.35;;;;;;;6.50;82.23;100579.81;5281782;27;35102;-74
2021/12/16 10:11:52;;;;;;;36.70;16.25;;;;;;;7.25;78.94;100580.72;5300530;27;34450;-75
2021/12/16 10:19:45;;;;;;;31.00;15.68;;;;;;;6.96;79.56;100569.72;5299139;27;36004;-74
2021/12/16 10:22:39;;;;;;;35.53;12.18;;;;;;;6.91;80.76;100567.00;5280495;27;35113;-72
2021/12/16 10:25:33;;;;;;;28.35;15.07;;;;;;;6.76;79.54;100561.44;5297987;27;34383;-70
2021/12/16 10:28:04;;;;;;;28.70;14.68;;;;;;;6.61;80.40;100552.47;5299231;27;33948;-69
2021/12/16 10:30:44;;;;;;;31.12;15.73;;;;;;;6.60;80.16;100558.50;5299585;27;35165;-70
2021/12/16 10:33:26;;;;;;;23.38;12.15;;;;;;;6.56;80.28;100554.06;5300391;27;35285;-75
2021/12/16 10:36:19;;;;;;;32.47;15.57;;;;;;;7.38;76.62;100553.41;5299905;27;34364;-74
2021/12/16 10:38:52;;;;;;;28.67;13.62;;;;;;;6.48;79.36;100560.78;5280483;27;34793;-69
2021/12/16 10:41:24;;;;;;;35.72;15.20;;;;;;;6.71;79.35;100552.72;5299910;27;35182;-75
2021/12/16 10:44:04;;;;;;;34.65;14.73;;;;;;;6.18;81.71;100548.81;5280720;27;35291;-75
2021/12/16 10:46:39;;;;;;;26.70;13.30;;;;;;;6.28;81.13;100549.03;5300120;27;33847;-74
2021/12/16 10:49:10;;;;;;;31.08;14.68;;;;;;;6.37;81.77;100547.59;5300110;27;33928;-74
2021/12/16 10:51:40;;;;;;;31.10;15.32;;;;;;;5.78;83.85;100550.25;5299920;27;36041;-72
2021/12/16 10:54:20;;;;;;;29.83;13.88;;;;;;;5.71;84.50;100553.50;5298464;27;34172;-68
2021/12/16 10:57:01;;;;;;;26.50;13.05;;;;;;;5.99;84.32;100539.66;5299086;27;33407;-73
2021/12/16 10:59:33;;;;;;;33.72;14.15;;;;;;;6.39;82.71;100550.22;5300115;27;34676;-72
2021/12/16 11:02:25;;;;;;;23.48;12.57;;;;;;;6.29;83.25;100553.38;5299478;27;35209;-68
2021/12/16 11:05:00;;;;;;;31.90;14.68;;;;;;;6.64;82.02;100549.09;5297726;27;34564;-69
2021/12/16 11:07:32;;;;;;;30.67;13.85;;;;;;;6.23;82.53;100544.63;5300017;27;33302;-74
2021/12/16 11:10:19;;;;;;;25.37;13.70;;;;;;;6.07;83.11;100547.62;5298763;27;34169;-69
2021/12/16 11:12:56;;;;;;;21.15;12.43;;;;;;;6.64;82.64;100541.34;5300316;27;35045;-77
2021/12/16 11:15:33;;;;;;;28.90;13.55;;;;;;;6.94;80.98;100541.19;5299774;27;34479;-76
2021/12/16 11:18:28;;;;;;;32.92;14.13;;;;;;;7.01;79.71;100545.69;5300421;27;34287;-69
2021/12/16 11:21:02;;;;;;;27.83;14.00;;;;;;;7.06;81.44;100537.12;5299902;27;33878;-78
2021/12/16 11:23:40;;;;;;;25.67;13.05;;;;;;;7.51;78.00;100538.97;5300283;27;35090;-76
2021/12/16 11:26:16;;;;;;;32.67;13.60;;;;;;;8.01;76.75;100533.91;5299346;27;34450;-73
2021/12/16 11:28:50;;;;;;;23.48;13.88;;;;;;;8.21;74.93;100523.06;5300347;27;33732;-76
2021/12/16 11:31:31;;;;;;;30.48;13.82;;;;;;;8.11;75.87;100533.25;5299479;27;34071;-70
2021/12/16 11:34:07;;;;;;;25.95;14.00;;;;;;;8.21;75.06;100518.75;5298850;27;35069;-76
2021/12/16 11:36:43;;;;;;;25.60;12.40;;;;;;;8.91;72.70;100519.06;5298323;27;34562;-76
2021/12/16 11:39:24;;;;;;;27.52;12.23;;;;;;;9.16;71.61;100518.50;5300280;27;33776;-76
2021/12/16 11:42:00;;;;;;;24.02;12.23;;;;;;;9.27;71.34;100514.34;5299560;27;34637;-76
2021/12/16 11:44:48;;;;;;;25.70;13.40;;;;;;;8.99;71.34;100513.09;5300357;27;34950;-76
2021/12/16 11:47:20;;;;;;;21.65;11.35;;;;;;;8.16;73.80;100513.44;5299718;27;34468;-77
2021/12/16 11:50:03;;;;;;;27.20;13.07;;;;;;;8.27;73.24;100508.44;5299718;27;33544;-72
2021/12/16 11:52:35;;;;;;;23.58;12.27;;;;;;;7.95;74.38;100510.47;5299806;27;33886;-75
2021/12/16 11:55:10;;;;;;;24.65;12.18;;;;;;;7.86;75.49;100508.56;5300153;27;34618;-77
2021/12/16 11:57:52;;;;;;;22.50;11.70;;;;;;;7.82;75.60;100500.69;5298265;27;34933;-77
2021/12/16 12:00:28;;;;;;;27.20;13.48;;;;;;;7.69;76.03;100502.19;5299279;27;33709;-75
2021/12/16 12:03:00;;;;;;;22.75;10.50;;;;;;;7.33;77.71;100498.03;5298817;27;34851;-76
2021/12/16 12:05:37;;;;;;;23.87;11.55;;;;;;;8.27;74.54;100487.69;5298234;27;34983;-76
2021/12/16 12:08:15;;;;;;;20.85;10.50;;;;;;;7.43;77.88;100488.69;5300198;27;34543;-76
2021/12/16 12:10:59;;;;;;;27.23;12.50;;;;;;;7.99;75.16;100499.31;5299513;27;33534;-77
2021/12/16 12:13:43;;;;;;;20.37;10.40;;;;;;;7.63;76.98;100495.19;5298711;27;34038;-76
2021/12/16 12:16:15;;;;;;;25.62;12.88;;;;;;;8.02;74.69;100486.41;5298577;27;35040;-77
2021/12/16 12:18:46;;;;;;;22.33;11.05;;;;;;;7.50;77.55;100499.25;5298995;27;34337;-70
2021/12/16 12:21:20;;;;;;;23.80;11.55;;;;;;;7.56;77.70;100490.72;5298237;27;33682;-76
2021/12/16 12:24:09;;;;;;;24.70;11.63;;;;;;;6.92;79.45;100501.44;5300143;27;33892;-75
2021/12/16 12:26:42;;;;;;;23.80;11.18;;;;;;;7.72;76.35;100491.88;5299446;27;34980;-75
2021/12/16 12:29:18;;;;;;;24.60;11.73;;;;;;;7.86;75.98;100497.34;5299872;27;34472;-75
2021/12/16 12:31:51;;;;;;;30.97;13.13;;;;;;;7.09;78.50;100500.94;5297777;27;33851;-77
2021/12/16 12:34:21;;;;;;;22.85;10.57;;;;;;;6.90;80.05;100497.06;5280547;27;34125;-69
2021/12/16 12:36:52;;;;;;;22.58;11.38;;;;;;;7.17;79.17;100497.69;5299349;27;35042;-74
2021/12/16 12:39:23;;;;;;;23.27;10.52;;;;;;;6.91;79.98;100504.00;5300090;27;34396;-69
2021/12/16 12:41:52;;;;;;;22.70;11.50;;;;;;;7.38;78.28;100496.41;5298143;27;34274;-76
2021/12/16 12:44:22;;;;;;;21.83;9.25;;;;;;;7.62;76.06;100492.53;5299848;27;33765;-76
2021/12/16 12:46:51;;;;;;;21.08;10.45;;;;;;;7.25;78.01;100487.47;5298981;27;36055;-75
2021/12/16 12:49:27;;;;;;;23.90;11.12;;;;;;;7.20;78.49;100486.53;5280234;27;34628;-70
2021/12/16 12:52:17;;;;;;;22.13;11.67;;;;;;;7.22;77.95;100495.19;5298759;27;33519;-75
2021/12/16 12:55:31;;;;;;;23.70;11.77;;;;;;;7.00;79.93;100488.66;5281941;27;33660;-70
2021/12/16 12:58:11;;;;;;;23.92;10.95;;;;;;;7.01;79.94;100485.25;5297542;27;34663;-74
2021/12/16 13:00:53;;;;;;;20.30;11.70;;;;;;;7.08;79.43;100492.31;5298989;27;34523;-71
2021/12/16 13:03:32;;;;;;;23.50;11.07;;;;;;;7.12;79.53;100493.25;5299474;27;33544;-69
2021/12/16 13:06:26;;;;;;;21.08;11.40;;;;;;;7.15;78.54;100495.91;5298869;27;33894;-70
2021/12/16 13:08:54;;;;;;;16.75;9.00;;;;;;;6.77;79.52;100494.19;5299359;27;35161;-68
2021/12/16 13:11:28;;;;;;;19.00;9.93;;;;;;;7.11;78.84;100497.56;5289930;27;34149;-70
2021/12/16 13:28:58;;;;;;;24.63;10.32;;;;;;;6.55;81.42;100498.00;5300019;27;34302;-69
2021/12/16 13:32:51;;;;;;;24.17;11.32;;;;;;;6.29;82.13;100496.47;5299699;27;35061;-73
2021/12/16 13:35:08;;;;;;;22.42;10.88;;;;;;;6.82;80.47;100505.53;5286289;27;34392;-68
2021/12/16 13:37:45;;;;;;;24.70;11.90;;;;;;;6.09;83.44;100514.94;5299797;27;33617;-69
2021/12/16 13:40:14;;;;;;;23.23;11.12;;;;;;;6.03;83.67;100517.34;5281103;27;34769;-73
2021/12/16 13:42:51;;;;;;;25.40;12.23;;;;;;;6.47;81.95;100515.03;5299903;27;36007;-75
2021/12/16 13:45:35;;;;;;;19.50;10.25;;;;;;;6.11;83.12;100518.44;5300350;27;34296;-75
2021/12/16 13:58:18;;;;;;;18.83;10.65;;;;;;;6.80;80.89;100527.06;5300458;27;35937;-75
2021/12/16 14:06:53;;;;;;;19.65;10.82;;;;;;;6.26;83.07;100524.03;5299292;27;35161;-73
2021/12/16 14:09:28;;;;;;;20.45;11.10;;;;;;;6.17;83.64;100518.59;5299663;27;34501;-75
2021/12/16 14:17:40;;;;;;;22.37;10.95;;;;;;;6.06;83.95;100520.03;5299252;27;35977;-70
2021/12/16 14:23:06;;;;;;;22.13;10.13;;;;;;;6.10;84.57;100516.69;5299829;27;33659;-74
2021/12/16 14:40:00;;;;;;;20.92;10.43;;;;;;;6.15;84.19;100519.41;5299984;27;35144;-70
2021/12/16 14:50:39;;;;;;;19.25;9.93;;;;;;;6.40;82.11;100531.25;5296544;27;35108;-74
2021/12/16 14:53:25;;;;;;;18.17;9.02;;;;;;;6.19;83.55;100540.19;5299431;27;34709;-74
2021/12/16 14:56:07;;;;;;;20.92;11.18;;;;;;;5.84;84.99;100537.53;5299085;27;33659;-69
2021/12/16 14:58:37;;;;;;;17.25;9.20;;;;;;;5.98;84.46;100539.63;5300264;27;34065;-76
2021/12/16 15:01:14;;;;;;;17.75;9.23;;;;;;;6.47;82.58;100537.47;5299827;27;34983;-69
2021/12/16 15:03:44;;;;;;;21.95;10.60;;;;;;;6.39;82.24;100545.03;5300260;27;34407;-70
2021/12/16 15:06:24;;;;;;;20.77;10.20;;;;;;;6.55;81.92;100538.53;5298939;27;33311;-69
2021/12/16 15:11:56;;;;;;;18.10;9.75;;;;;;;6.58;81.67;100542.06;5299649;27;35023;-77
2021/12/16 15:17:35;;;;;;;19.15;9.52;;;;;;;6.27;83.67;100540.41;5297570;27;33714;-77
2021/12/16 15:39:56;;;;;;;18.60;8.73;;;;;;;6.20;83.10;100523.84;5300047;27;34644;-72
2021/12/16 15:45:24;;;;;;;17.90;8.88;;;;;;;5.89;84.31;100538.53;5298984;27;35201;-76